sensor_id;sensor_type;location;lat;lon;timestamp;temperature;humidity
16287;DHT22;8251;53.568;10.018;2022-10-16T00:01:44;17.80;89.20
16287;DHT22;8251;53.568;10.018;2022-10-16T00:04:12;17.80;89.10
16287;DHT22;8251;53.568;10.018;2022-10-16T00:06:41;17.70;88.80
16287;DHT22;8251;53.568;10.018;2022-10-16T00:09:09;17.70;88.80
16287;DHT22;8251;53.568;10.018;2022-10-16T00:11:39;17.70;88.80
16287;DHT22;8251;53.568;10.018;2022-10-16T00:14:12;17.70;88.60
16287;DHT22;8251;53.568;10.018;2022-10-16T00:16:39;17.70;88.30
16287;DHT22;8251;53.568;10.018;2022-10-16T00:19:10;17.60;88.10
16287;DHT22;8251;53.568;10.018;2022-10-16T00:21:39;17.60;88.20
16287;DHT22;8251;53.568;10.018;2022-10-16T00:24:08;17.60;88.00
16287;DHT22;8251;53.568;10.018;2022-10-16T00:26:39;17.60;87.90
16287;DHT22;8251;53.568;10.018;2022-10-16T00:29:07;17.60;87.50
16287;DHT22;8251;53.568;10.018;2022-10-16T00:31:36;17.60;87.40
16287;DHT22;8251;53.568;10.018;2022-10-16T00:34:05;17.60;86.60
16287;DHT22;8251;53.568;10.018;2022-10-16T00:36:34;17.60;86.50
16287;DHT22;8251;53.568;10.018;2022-10-16T00:39:01;17.60;86.50
16287;DHT22;8251;53.568;10.018;2022-10-16T00:41:31;17.60;86.50
16287;DHT22;8251;53.568;10.018;2022-10-16T00:44:40;17.50;85.90
16287;DHT22;8251;53.568;10.018;2022-10-16T00:46:54;17.50;86.10
16287;DHT22;8251;53.568;10.018;2022-10-16T00:49:24;17.50;85.90
16287;DHT22;8251;53.568;10.018;2022-10-16T00:51:53;17.60;85.90
16287;DHT22;8251;53.568;10.018;2022-10-16T00:54:24;17.60;85.50
16287;DHT22;8251;53.568;10.018;2022-10-16T00:56:53;17.60;84.90
16287;DHT22;8251;53.568;10.018;2022-10-16T00:59:25;17.50;84.70
16287;DHT22;8251;53.568;10.018;2022-10-16T01:01:56;17.50;84.60
16287;DHT22;8251;53.568;10.018;2022-10-16T01:04:34;17.60;84.70
16287;DHT22;8251;53.568;10.018;2022-10-16T01:07:10;17.60;84.60
16287;DHT22;8251;53.568;10.018;2022-10-16T01:10:02;17.70;84.30
16287;DHT22;8251;53.568;10.018;2022-10-16T01:12:42;17.70;83.90
16287;DHT22;8251;53.568;10.018;2022-10-16T01:15:19;17.70;84.60
16287;DHT22;8251;53.568;10.018;2022-10-16T01:17:56;17.70;83.80
16287;DHT22;8251;53.568;10.018;2022-10-16T01:20:35;17.70;83.70
16287;DHT22;8251;53.568;10.018;2022-10-16T01:23:28;17.70;83.00
16287;DHT22;8251;53.568;10.018;2022-10-16T01:26:19;17.70;83.10
16287;DHT22;8251;53.568;10.018;2022-10-16T01:28:54;17.70;82.90
16287;DHT22;8251;53.568;10.018;2022-10-16T01:31:24;17.60;82.90
16287;DHT22;8251;53.568;10.018;2022-10-16T01:33:58;17.60;83.10
16287;DHT22;8251;53.568;10.018;2022-10-16T01:36:31;17.60;82.80
16287;DHT22;8251;53.568;10.018;2022-10-16T01:39:01;17.60;83.00
16287;DHT22;8251;53.568;10.018;2022-10-16T01:41:33;17.60;83.10
16287;DHT22;8251;53.568;10.018;2022-10-16T01:44:04;17.60;83.10
16287;DHT22;8251;53.568;10.018;2022-10-16T01:46:34;17.50;82.70
16287;DHT22;8251;53.568;10.018;2022-10-16T01:49:06;17.50;83.00
16287;DHT22;8251;53.568;10.018;2022-10-16T01:51:38;17.50;83.20
16287;DHT22;8251;53.568;10.018;2022-10-16T01:54:12;17.50;83.10
16287;DHT22;8251;53.568;10.018;2022-10-16T01:56:42;17.50;82.80
16287;DHT22;8251;53.568;10.018;2022-10-16T01:59:14;17.50;83.10
16287;DHT22;8251;53.568;10.018;2022-10-16T02:01:47;17.50;83.10
16287;DHT22;8251;53.568;10.018;2022-10-16T02:04:23;17.50;83.20
16287;DHT22;8251;53.568;10.018;2022-10-16T02:07:03;17.50;83.10
16287;DHT22;8251;53.568;10.018;2022-10-16T02:09:33;17.50;83.20
16287;DHT22;8251;53.568;10.018;2022-10-16T02:12:15;17.40;83.20
16287;DHT22;8251;53.568;10.018;2022-10-16T02:14:50;17.40;83.40
16287;DHT22;8251;53.568;10.018;2022-10-16T02:17:20;17.40;83.40
16287;DHT22;8251;53.568;10.018;2022-10-16T02:19:51;17.30;83.10
16287;DHT22;8251;53.568;10.018;2022-10-16T02:22:29;17.40;83.20
16287;DHT22;8251;53.568;10.018;2022-10-16T02:25:04;17.30;83.10
16287;DHT22;8251;53.568;10.018;2022-10-16T02:27:47;17.30;82.70
16287;DHT22;8251;53.568;10.018;2022-10-16T02:30:25;17.40;83.00
16287;DHT22;8251;53.568;10.018;2022-10-16T02:33:02;17.40;83.10
16287;DHT22;8251;53.568;10.018;2022-10-16T02:35:34;17.30;82.90
16287;DHT22;8251;53.568;10.018;2022-10-16T02:38:05;17.30;82.70
16287;DHT22;8251;53.568;10.018;2022-10-16T02:40:37;17.30;83.10
16287;DHT22;8251;53.568;10.018;2022-10-16T02:43:06;17.30;83.40
16287;DHT22;8251;53.568;10.018;2022-10-16T02:45:42;17.30;83.30
16287;DHT22;8251;53.568;10.018;2022-10-16T02:48:13;17.30;83.20
16287;DHT22;8251;53.568;10.018;2022-10-16T02:50:43;17.30;83.30
16287;DHT22;8251;53.568;10.018;2022-10-16T02:53:11;17.30;82.70
16287;DHT22;8251;53.568;10.018;2022-10-16T02:55:42;17.30;82.70
16287;DHT22;8251;53.568;10.018;2022-10-16T02:58:12;17.30;82.50
16287;DHT22;8251;53.568;10.018;2022-10-16T03:00:44;17.20;82.70
16287;DHT22;8251;53.568;10.018;2022-10-16T03:03:20;17.20;83.00
16287;DHT22;8251;53.568;10.018;2022-10-16T03:05:55;17.20;83.20
16287;DHT22;8251;53.568;10.018;2022-10-16T03:08:29;17.20;83.20
16287;DHT22;8251;53.568;10.018;2022-10-16T03:10:59;17.20;83.20
16287;DHT22;8251;53.568;10.018;2022-10-16T03:13:29;17.20;83.10
16287;DHT22;8251;53.568;10.018;2022-10-16T03:16:04;17.20;82.70
16287;DHT22;8251;53.568;10.018;2022-10-16T03:18:34;17.10;82.70
16287;DHT22;8251;53.568;10.018;2022-10-16T03:21:04;17.10;82.60
16287;DHT22;8251;53.568;10.018;2022-10-16T03:23:34;16.90;82.50
16287;DHT22;8251;53.568;10.018;2022-10-16T03:26:02;16.90;82.90
16287;DHT22;8251;53.568;10.018;2022-10-16T03:28:35;16.90;83.10
16287;DHT22;8251;53.568;10.018;2022-10-16T03:31:20;16.80;83.10
16287;DHT22;8251;53.568;10.018;2022-10-16T03:33:48;16.80;82.90
16287;DHT22;8251;53.568;10.018;2022-10-16T03:36:18;16.80;83.20
16287;DHT22;8251;53.568;10.018;2022-10-16T03:38:51;16.80;83.40
16287;DHT22;8251;53.568;10.018;2022-10-16T03:41:22;16.80;83.60
16287;DHT22;8251;53.568;10.018;2022-10-16T03:43:51;16.70;83.40
16287;DHT22;8251;53.568;10.018;2022-10-16T03:46:22;16.70;83.60
16287;DHT22;8251;53.568;10.018;2022-10-16T03:48:53;16.70;83.70
16287;DHT22;8251;53.568;10.018;2022-10-16T03:51:25;16.80;83.80
16287;DHT22;8251;53.568;10.018;2022-10-16T03:53:57;16.70;83.80
16287;DHT22;8251;53.568;10.018;2022-10-16T03:56:39;16.80;83.70
16287;DHT22;8251;53.568;10.018;2022-10-16T03:59:07;16.80;83.70
16287;DHT22;8251;53.568;10.018;2022-10-16T04:01:38;16.80;83.70
16287;DHT22;8251;53.568;10.018;2022-10-16T04:04:08;16.80;83.60
16287;DHT22;8251;53.568;10.018;2022-10-16T04:06:40;16.70;83.60
16287;DHT22;8251;53.568;10.018;2022-10-16T04:09:13;16.70;83.80
16287;DHT22;8251;53.568;10.018;2022-10-16T04:11:45;16.70;83.70
16287;DHT22;8251;53.568;10.018;2022-10-16T04:14:15;16.80;83.60
16287;DHT22;8251;53.568;10.018;2022-10-16T04:17:01;16.70;83.60
16287;DHT22;8251;53.568;10.018;2022-10-16T04:19:33;16.70;83.60
16287;DHT22;8251;53.568;10.018;2022-10-16T04:22:05;16.70;83.80
16287;DHT22;8251;53.568;10.018;2022-10-16T04:24:40;16.70;84.00
16287;DHT22;8251;53.568;10.018;2022-10-16T04:27:10;16.70;83.90
16287;DHT22;8251;53.568;10.018;2022-10-16T04:29:39;16.70;83.40
16287;DHT22;8251;53.568;10.018;2022-10-16T04:32:11;16.70;83.80
16287;DHT22;8251;53.568;10.018;2022-10-16T04:34:43;16.70;84.00
16287;DHT22;8251;53.568;10.018;2022-10-16T04:37:11;16.70;84.00
16287;DHT22;8251;53.568;10.018;2022-10-16T04:39:43;16.70;83.70
16287;DHT22;8251;53.568;10.018;2022-10-16T04:42:10;16.70;83.80
16287;DHT22;8251;53.568;10.018;2022-10-16T04:44:39;16.70;83.90
16287;DHT22;8251;53.568;10.018;2022-10-16T04:47:14;16.70;83.60
16287;DHT22;8251;53.568;10.018;2022-10-16T04:49:45;16.70;83.70
16287;DHT22;8251;53.568;10.018;2022-10-16T04:52:18;16.70;83.70
16287;DHT22;8251;53.568;10.018;2022-10-16T04:54:48;16.70;83.60
16287;DHT22;8251;53.568;10.018;2022-10-16T04:57:17;16.70;83.40
16287;DHT22;8251;53.568;10.018;2022-10-16T04:59:44;16.70;83.60
16287;DHT22;8251;53.568;10.018;2022-10-16T05:02:24;16.60;83.60
16287;DHT22;8251;53.568;10.018;2022-10-16T05:04:55;16.70;83.80
16287;DHT22;8251;53.568;10.018;2022-10-16T05:07:28;16.70;83.80
16287;DHT22;8251;53.568;10.018;2022-10-16T05:09:56;16.60;83.80
16287;DHT22;8251;53.568;10.018;2022-10-16T05:12:27;16.60;83.90
16287;DHT22;8251;53.568;10.018;2022-10-16T05:14:56;16.60;83.90
16287;DHT22;8251;53.568;10.018;2022-10-16T05:17:27;16.60;84.10
16287;DHT22;8251;53.568;10.018;2022-10-16T05:20:01;16.70;84.20
16287;DHT22;8251;53.568;10.018;2022-10-16T05:22:30;16.70;84.30
16287;DHT22;8251;53.568;10.018;2022-10-16T05:24:58;16.70;84.40
16287;DHT22;8251;53.568;10.018;2022-10-16T05:27:33;16.70;84.30
16287;DHT22;8251;53.568;10.018;2022-10-16T05:30:05;16.70;84.20
16287;DHT22;8251;53.568;10.018;2022-10-16T05:32:48;16.60;84.20
16287;DHT22;8251;53.568;10.018;2022-10-16T05:35:21;16.70;84.40
16287;DHT22;8251;53.568;10.018;2022-10-16T05:37:54;16.70;84.40
16287;DHT22;8251;53.568;10.018;2022-10-16T05:40:24;16.60;84.40
16287;DHT22;8251;53.568;10.018;2022-10-16T05:42:59;16.60;84.40
16287;DHT22;8251;53.568;10.018;2022-10-16T05:45:26;16.60;84.50
16287;DHT22;8251;53.568;10.018;2022-10-16T05:48:06;16.70;84.60
16287;DHT22;8251;53.568;10.018;2022-10-16T05:50:37;16.60;84.00
16287;DHT22;8251;53.568;10.018;2022-10-16T05:53:07;16.60;84.20
16287;DHT22;8251;53.568;10.018;2022-10-16T05:55:40;16.60;84.30
16287;DHT22;8251;53.568;10.018;2022-10-16T05:58:08;16.60;84.50
16287;DHT22;8251;53.568;10.018;2022-10-16T06:00:36;16.60;84.50
16287;DHT22;8251;53.568;10.018;2022-10-16T06:03:07;16.70;84.70
16287;DHT22;8251;53.568;10.018;2022-10-16T06:05:39;16.70;84.80
16287;DHT22;8251;53.568;10.018;2022-10-16T06:08:08;16.70;84.70
16287;DHT22;8251;53.568;10.018;2022-10-16T06:10:44;16.70;84.80
16287;DHT22;8251;53.568;10.018;2022-10-16T06:13:14;16.70;84.80
16287;DHT22;8251;53.568;10.018;2022-10-16T06:15:50;16.80;84.80
16287;DHT22;8251;53.568;10.018;2022-10-16T06:18:22;16.70;84.40
16287;DHT22;8251;53.568;10.018;2022-10-16T06:20:52;16.70;84.30
16287;DHT22;8251;53.568;10.018;2022-10-16T06:23:23;16.70;84.60
16287;DHT22;8251;53.568;10.018;2022-10-16T06:26:03;16.70;84.50
16287;DHT22;8251;53.568;10.018;2022-10-16T06:28:38;16.70;84.80
16287;DHT22;8251;53.568;10.018;2022-10-16T06:31:08;16.70;84.90
16287;DHT22;8251;53.568;10.018;2022-10-16T06:33:40;16.70;84.60
16287;DHT22;8251;53.568;10.018;2022-10-16T06:36:13;16.70;84.70
16287;DHT22;8251;53.568;10.018;2022-10-16T06:38:43;16.60;84.90
16287;DHT22;8251;53.568;10.018;2022-10-16T06:41:16;16.60;84.90
16287;DHT22;8251;53.568;10.018;2022-10-16T06:43:48;16.50;85.10
16287;DHT22;8251;53.568;10.018;2022-10-16T06:46:22;16.50;85.50
16287;DHT22;8251;53.568;10.018;2022-10-16T06:48:53;16.60;85.50
16287;DHT22;8251;53.568;10.018;2022-10-16T06:51:23;16.50;85.60
16287;DHT22;8251;53.568;10.018;2022-10-16T06:53:53;16.60;85.50
16287;DHT22;8251;53.568;10.018;2022-10-16T06:56:27;16.70;85.50
16287;DHT22;8251;53.568;10.018;2022-10-16T06:58:58;16.60;85.50
16287;DHT22;8251;53.568;10.018;2022-10-16T07:01:29;16.60;85.70
16287;DHT22;8251;53.568;10.018;2022-10-16T07:04:03;16.70;85.90
16287;DHT22;8251;53.568;10.018;2022-10-16T07:06:36;16.80;85.90
16287;DHT22;8251;53.568;10.018;2022-10-16T07:09:08;16.70;85.80
16287;DHT22;8251;53.568;10.018;2022-10-16T07:11:39;16.80;86.10
16287;DHT22;8251;53.568;10.018;2022-10-16T07:14:17;16.80;86.90
16287;DHT22;8251;53.568;10.018;2022-10-16T07:16:48;16.90;85.80
16287;DHT22;8251;53.568;10.018;2022-10-16T07:19:24;16.90;86.20
16287;DHT22;8251;53.568;10.018;2022-10-16T07:22:03;16.90;86.20
16287;DHT22;8251;53.568;10.018;2022-10-16T07:24:35;17.00;86.40
16287;DHT22;8251;53.568;10.018;2022-10-16T07:27:04;17.10;86.20
16287;DHT22;8251;53.568;10.018;2022-10-16T07:29:33;17.20;86.20
16287;DHT22;8251;53.568;10.018;2022-10-16T07:32:14;17.20;86.00
16287;DHT22;8251;53.568;10.018;2022-10-16T07:34:56;17.20;85.90
16287;DHT22;8251;53.568;10.018;2022-10-16T07:37:24;17.20;86.00
16287;DHT22;8251;53.568;10.018;2022-10-16T07:39:52;17.20;86.10
16287;DHT22;8251;53.568;10.018;2022-10-16T07:42:27;17.30;86.10
16287;DHT22;8251;53.568;10.018;2022-10-16T07:44:57;17.30;86.00
16287;DHT22;8251;53.568;10.018;2022-10-16T07:47:24;17.40;86.20
16287;DHT22;8251;53.568;10.018;2022-10-16T07:49:54;17.30;86.10
16287;DHT22;8251;53.568;10.018;2022-10-16T07:52:23;17.40;86.20
16287;DHT22;8251;53.568;10.018;2022-10-16T07:54:52;17.40;86.20
16287;DHT22;8251;53.568;10.018;2022-10-16T07:57:22;17.50;86.30
16287;DHT22;8251;53.568;10.018;2022-10-16T07:59:57;17.60;85.80
16287;DHT22;8251;53.568;10.018;2022-10-16T08:02:26;17.60;85.80
16287;DHT22;8251;53.568;10.018;2022-10-16T08:04:57;17.80;85.50
16287;DHT22;8251;53.568;10.018;2022-10-16T08:07:25;17.80;85.10
16287;DHT22;8251;53.568;10.018;2022-10-16T08:09:52;17.80;84.80
16287;DHT22;8251;53.568;10.018;2022-10-16T08:12:22;17.80;84.60
16287;DHT22;8251;53.568;10.018;2022-10-16T08:14:51;17.90;84.60
16287;DHT22;8251;53.568;10.018;2022-10-16T08:17:20;17.90;84.60
16287;DHT22;8251;53.568;10.018;2022-10-16T08:19:50;17.90;84.50
16287;DHT22;8251;53.568;10.018;2022-10-16T08:22:19;17.90;84.50
16287;DHT22;8251;53.568;10.018;2022-10-16T08:24:50;17.80;84.20
16287;DHT22;8251;53.568;10.018;2022-10-16T08:27:18;17.80;84.60
16287;DHT22;8251;53.568;10.018;2022-10-16T08:29:48;17.90;84.90
16287;DHT22;8251;53.568;10.018;2022-10-16T08:32:18;18.10;83.90
16287;DHT22;8251;53.568;10.018;2022-10-16T08:34:46;18.20;83.60
16287;DHT22;8251;53.568;10.018;2022-10-16T08:37:13;18.30;84.10
16287;DHT22;8251;53.568;10.018;2022-10-16T08:39:51;18.40;82.90
16287;DHT22;8251;53.568;10.018;2022-10-16T08:42:32;18.60;82.90
16287;DHT22;8251;53.568;10.018;2022-10-16T08:45:31;18.60;82.30
16287;DHT22;8251;53.568;10.018;2022-10-16T08:48:14;18.60;82.10
16287;DHT22;8251;53.568;10.018;2022-10-16T08:50:49;18.70;82.30
16287;DHT22;8251;53.568;10.018;2022-10-16T08:53:27;18.70;82.10
16287;DHT22;8251;53.568;10.018;2022-10-16T08:56:01;18.70;82.40
16287;DHT22;8251;53.568;10.018;2022-10-16T08:58:31;18.60;82.10
16287;DHT22;8251;53.568;10.018;2022-10-16T09:01:01;18.70;82.20
16287;DHT22;8251;53.568;10.018;2022-10-16T09:03:41;18.70;82.00
16287;DHT22;8251;53.568;10.018;2022-10-16T09:06:29;18.70;81.50
16287;DHT22;8251;53.568;10.018;2022-10-16T09:09:21;18.70;81.40
16287;DHT22;8251;53.568;10.018;2022-10-16T09:11:59;18.80;81.80
16287;DHT22;8251;53.568;10.018;2022-10-16T09:15:01;18.80;81.50
16287;DHT22;8251;53.568;10.018;2022-10-16T09:17:46;18.80;80.80
16287;DHT22;8251;53.568;10.018;2022-10-16T09:20:23;18.90;81.20
16287;DHT22;8251;53.568;10.018;2022-10-16T09:23:08;18.90;80.50
16287;DHT22;8251;53.568;10.018;2022-10-16T09:25:39;19.00;80.60
16287;DHT22;8251;53.568;10.018;2022-10-16T09:28:09;19.10;80.20
16287;DHT22;8251;53.568;10.018;2022-10-16T09:30:37;19.10;79.80
16287;DHT22;8251;53.568;10.018;2022-10-16T09:33:08;19.10;79.80
16287;DHT22;8251;53.568;10.018;2022-10-16T09:35:37;19.20;79.70
16287;DHT22;8251;53.568;10.018;2022-10-16T09:38:07;19.20;79.40
16287;DHT22;8251;53.568;10.018;2022-10-16T09:40:37;19.30;79.50
16287;DHT22;8251;53.568;10.018;2022-10-16T09:43:21;19.30;79.30
16287;DHT22;8251;53.568;10.018;2022-10-16T09:45:58;19.40;79.30
16287;DHT22;8251;53.568;10.018;2022-10-16T09:48:30;19.40;78.20
16287;DHT22;8251;53.568;10.018;2022-10-16T09:51:01;19.50;77.90
16287;DHT22;8251;53.568;10.018;2022-10-16T09:53:46;19.50;77.60
16287;DHT22;8251;53.568;10.018;2022-10-16T09:56:25;19.50;77.70
16287;DHT22;8251;53.568;10.018;2022-10-16T09:58:56;19.50;77.50
16287;DHT22;8251;53.568;10.018;2022-10-16T10:01:31;19.60;77.00
16287;DHT22;8251;53.568;10.018;2022-10-16T10:04:01;19.60;76.60
16287;DHT22;8251;53.568;10.018;2022-10-16T10:06:32;19.60;77.10
16287;DHT22;8251;53.568;10.018;2022-10-16T10:09:06;19.60;77.20
16287;DHT22;8251;53.568;10.018;2022-10-16T10:11:48;19.60;76.80
16287;DHT22;8251;53.568;10.018;2022-10-16T10:14:22;19.50;77.30
16287;DHT22;8251;53.568;10.018;2022-10-16T10:16:52;19.50;77.10
16287;DHT22;8251;53.568;10.018;2022-10-16T10:19:23;19.50;76.90
16287;DHT22;8251;53.568;10.018;2022-10-16T10:21:53;19.50;77.30
16287;DHT22;8251;53.568;10.018;2022-10-16T10:24:22;19.60;77.50
16287;DHT22;8251;53.568;10.018;2022-10-16T10:27:05;19.60;77.70
16287;DHT22;8251;53.568;10.018;2022-10-16T10:29:48;19.70;77.60
16287;DHT22;8251;53.568;10.018;2022-10-16T10:32:28;19.80;77.50
16287;DHT22;8251;53.568;10.018;2022-10-16T10:35:17;19.90;77.40
16287;DHT22;8251;53.568;10.018;2022-10-16T10:38:02;19.90;75.60
16287;DHT22;8251;53.568;10.018;2022-10-16T10:40:43;19.90;76.20
16287;DHT22;8251;53.568;10.018;2022-10-16T10:43:29;19.90;76.70
16287;DHT22;8251;53.568;10.018;2022-10-16T10:46:04;19.80;75.80
16287;DHT22;8251;53.568;10.018;2022-10-16T10:48:54;19.80;75.10
16287;DHT22;8251;53.568;10.018;2022-10-16T10:51:28;19.90;76.00
16287;DHT22;8251;53.568;10.018;2022-10-16T10:54:05;20.00;75.30
16287;DHT22;8251;53.568;10.018;2022-10-16T10:56:44;20.00;74.40
16287;DHT22;8251;53.568;10.018;2022-10-16T11:02:19;20.00;73.30
16287;DHT22;8251;53.568;10.018;2022-10-16T11:07:54;19.90;73.30
16287;DHT22;8251;53.568;10.018;2022-10-16T11:10:28;19.80;74.20
16287;DHT22;8251;53.568;10.018;2022-10-16T11:13:00;19.90;73.70
16287;DHT22;8251;53.568;10.018;2022-10-16T11:15:34;19.90;73.30
16287;DHT22;8251;53.568;10.018;2022-10-16T11:18:06;19.80;73.60
16287;DHT22;8251;53.568;10.018;2022-10-16T11:20:39;19.80;73.80
16287;DHT22;8251;53.568;10.018;2022-10-16T11:23:12;19.90;73.40
16287;DHT22;8251;53.568;10.018;2022-10-16T11:25:45;19.90;73.10
16287;DHT22;8251;53.568;10.018;2022-10-16T11:28:17;19.90;73.40
16287;DHT22;8251;53.568;10.018;2022-10-16T11:30:50;20.00;72.20
16287;DHT22;8251;53.568;10.018;2022-10-16T11:33:28;19.90;72.50
16287;DHT22;8251;53.568;10.018;2022-10-16T11:36:11;20.00;72.20
16287;DHT22;8251;53.568;10.018;2022-10-16T11:38:45;20.00;71.80
16287;DHT22;8251;53.568;10.018;2022-10-16T11:41:21;20.00;72.40
16287;DHT22;8251;53.568;10.018;2022-10-16T11:43:56;19.90;71.10
16287;DHT22;8251;53.568;10.018;2022-10-16T11:46:27;19.90;70.90
16287;DHT22;8251;53.568;10.018;2022-10-16T11:49:06;19.80;71.80
16287;DHT22;8251;53.568;10.018;2022-10-16T11:51:39;19.90;72.40
16287;DHT22;8251;53.568;10.018;2022-10-16T11:54:18;19.90;72.30
16287;DHT22;8251;53.568;10.018;2022-10-16T11:56:51;20.00;72.40
16287;DHT22;8251;53.568;10.018;2022-10-16T11:59:25;19.90;71.90
16287;DHT22;8251;53.568;10.018;2022-10-16T12:02:02;20.00;71.40
16287;DHT22;8251;53.568;10.018;2022-10-16T12:04:45;20.00;72.10
16287;DHT22;8251;53.568;10.018;2022-10-16T12:07:19;20.00;71.00
16287;DHT22;8251;53.568;10.018;2022-10-16T12:09:48;20.00;70.80
16287;DHT22;8251;53.568;10.018;2022-10-16T12:12:26;20.20;71.20
16287;DHT22;8251;53.568;10.018;2022-10-16T12:15:02;20.30;70.80
16287;DHT22;8251;53.568;10.018;2022-10-16T12:17:38;20.50;70.20
16287;DHT22;8251;53.568;10.018;2022-10-16T12:20:26;20.60;69.70
16287;DHT22;8251;53.568;10.018;2022-10-16T12:22:58;20.80;68.90
16287;DHT22;8251;53.568;10.018;2022-10-16T12:25:28;20.70;69.20
16287;DHT22;8251;53.568;10.018;2022-10-16T12:28:00;20.70;69.10
16287;DHT22;8251;53.568;10.018;2022-10-16T12:30:30;20.60;69.30
16287;DHT22;8251;53.568;10.018;2022-10-16T12:32:59;20.60;69.10
16287;DHT22;8251;53.568;10.018;2022-10-16T12:35:32;20.60;69.10
16287;DHT22;8251;53.568;10.018;2022-10-16T12:38:12;20.70;67.90
16287;DHT22;8251;53.568;10.018;2022-10-16T12:40:43;20.70;67.60
16287;DHT22;8251;53.568;10.018;2022-10-16T12:43:25;20.80;67.10
16287;DHT22;8251;53.568;10.018;2022-10-16T12:46:03;20.70;66.50
16287;DHT22;8251;53.568;10.018;2022-10-16T12:48:35;20.70;65.60
16287;DHT22;8251;53.568;10.018;2022-10-16T12:51:23;20.70;65.50
16287;DHT22;8251;53.568;10.018;2022-10-16T12:53:58;20.70;65.60
16287;DHT22;8251;53.568;10.018;2022-10-16T12:56:37;20.70;66.00
16287;DHT22;8251;53.568;10.018;2022-10-16T12:59:16;20.70;65.70
16287;DHT22;8251;53.568;10.018;2022-10-16T13:02:03;20.60;65.00
16287;DHT22;8251;53.568;10.018;2022-10-16T13:04:58;20.50;65.00
16287;DHT22;8251;53.568;10.018;2022-10-16T13:07:46;20.50;65.20
16287;DHT22;8251;53.568;10.018;2022-10-16T13:10:25;20.40;65.80
16287;DHT22;8251;53.568;10.018;2022-10-16T13:13:14;20.30;65.90
16287;DHT22;8251;53.568;10.018;2022-10-16T13:15:55;20.40;66.50
16287;DHT22;8251;53.568;10.018;2022-10-16T13:18:28;20.40;66.70
16287;DHT22;8251;53.568;10.018;2022-10-16T13:21:09;20.30;66.00
16287;DHT22;8251;53.568;10.018;2022-10-16T13:23:50;20.40;66.20
16287;DHT22;8251;53.568;10.018;2022-10-16T13:26:30;20.30;65.60
16287;DHT22;8251;53.568;10.018;2022-10-16T13:28:59;20.40;66.60
16287;DHT22;8251;53.568;10.018;2022-10-16T13:31:28;20.40;67.10
16287;DHT22;8251;53.568;10.018;2022-10-16T13:34:04;20.30;66.90
16287;DHT22;8251;53.568;10.018;2022-10-16T13:36:42;20.40;66.90
16287;DHT22;8251;53.568;10.018;2022-10-16T13:39:15;20.40;67.30
16287;DHT22;8251;53.568;10.018;2022-10-16T13:41:44;20.40;67.10
16287;DHT22;8251;53.568;10.018;2022-10-16T13:44:17;20.40;67.10
16287;DHT22;8251;53.568;10.018;2022-10-16T13:46:45;20.40;65.90
16287;DHT22;8251;53.568;10.018;2022-10-16T13:49:14;20.40;66.20
16287;DHT22;8251;53.568;10.018;2022-10-16T13:51:55;20.30;65.40
16287;DHT22;8251;53.568;10.018;2022-10-16T13:54:29;20.30;66.10
16287;DHT22;8251;53.568;10.018;2022-10-16T13:57:06;20.30;66.60
16287;DHT22;8251;53.568;10.018;2022-10-16T13:59:35;20.30;66.60
16287;DHT22;8251;53.568;10.018;2022-10-16T14:02:14;20.30;67.30
16287;DHT22;8251;53.568;10.018;2022-10-16T14:04:43;20.40;67.20
16287;DHT22;8251;53.568;10.018;2022-10-16T14:07:14;20.30;65.00
16287;DHT22;8251;53.568;10.018;2022-10-16T14:09:52;20.30;65.20
16287;DHT22;8251;53.568;10.018;2022-10-16T14:12:20;20.30;65.40
16287;DHT22;8251;53.568;10.018;2022-10-16T14:14:50;20.30;65.90
16287;DHT22;8251;53.568;10.018;2022-10-16T14:17:21;20.30;65.30
16287;DHT22;8251;53.568;10.018;2022-10-16T14:19:50;20.30;66.00
16287;DHT22;8251;53.568;10.018;2022-10-16T14:22:30;20.30;66.00
16287;DHT22;8251;53.568;10.018;2022-10-16T14:25:00;20.30;66.50
16287;DHT22;8251;53.568;10.018;2022-10-16T14:27:37;20.20;66.20
16287;DHT22;8251;53.568;10.018;2022-10-16T14:30:15;20.20;66.70
16287;DHT22;8251;53.568;10.018;2022-10-16T14:32:59;20.20;66.70
16287;DHT22;8251;53.568;10.018;2022-10-16T14:35:31;20.10;66.10
16287;DHT22;8251;53.568;10.018;2022-10-16T14:38:03;20.10;66.60
16287;DHT22;8251;53.568;10.018;2022-10-16T14:40:36;20.10;67.00
16287;DHT22;8251;53.568;10.018;2022-10-16T14:43:04;20.10;67.10
16287;DHT22;8251;53.568;10.018;2022-10-16T14:45:34;20.10;67.30
16287;DHT22;8251;53.568;10.018;2022-10-16T14:48:06;20.10;67.80
16287;DHT22;8251;53.568;10.018;2022-10-16T14:50:47;20.20;67.70
16287;DHT22;8251;53.568;10.018;2022-10-16T14:53:16;20.20;67.70
16287;DHT22;8251;53.568;10.018;2022-10-16T14:55:56;20.10;66.90
16287;DHT22;8251;53.568;10.018;2022-10-16T14:58:24;20.10;67.50
16287;DHT22;8251;53.568;10.018;2022-10-16T15:00:52;20.10;67.90
16287;DHT22;8251;53.568;10.018;2022-10-16T15:03:23;20.10;67.90
16287;DHT22;8251;53.568;10.018;2022-10-16T15:05:49;20.20;68.00
16287;DHT22;8251;53.568;10.018;2022-10-16T15:08:17;20.10;67.60
16287;DHT22;8251;53.568;10.018;2022-10-16T15:10:46;20.10;68.70
16287;DHT22;8251;53.568;10.018;2022-10-16T15:13:14;20.10;67.90
16287;DHT22;8251;53.568;10.018;2022-10-16T15:15:44;20.10;67.40
16287;DHT22;8251;53.568;10.018;2022-10-16T15:18:11;20.10;67.40
16287;DHT22;8251;53.568;10.018;2022-10-16T15:20:40;20.00;67.90
16287;DHT22;8251;53.568;10.018;2022-10-16T15:23:14;20.00;68.10
16287;DHT22;8251;53.568;10.018;2022-10-16T15:25:48;19.90;67.80
16287;DHT22;8251;53.568;10.018;2022-10-16T15:28:17;19.90;68.40
16287;DHT22;8251;53.568;10.018;2022-10-16T15:30:46;19.90;68.00
16287;DHT22;8251;53.568;10.018;2022-10-16T15:33:17;19.80;67.90
16287;DHT22;8251;53.568;10.018;2022-10-16T15:35:47;19.80;68.00
16287;DHT22;8251;53.568;10.018;2022-10-16T15:38:16;19.80;67.70
16287;DHT22;8251;53.568;10.018;2022-10-16T15:40:44;19.70;67.60
16287;DHT22;8251;53.568;10.018;2022-10-16T15:43:13;19.70;68.30
16287;DHT22;8251;53.568;10.018;2022-10-16T15:45:43;19.70;68.40
16287;DHT22;8251;53.568;10.018;2022-10-16T15:48:18;19.60;68.10
16287;DHT22;8251;53.568;10.018;2022-10-16T15:50:45;19.60;68.20
16287;DHT22;8251;53.568;10.018;2022-10-16T15:53:12;19.60;68.20
16287;DHT22;8251;53.568;10.018;2022-10-16T15:55:40;19.60;68.60
16287;DHT22;8251;53.568;10.018;2022-10-16T15:58:10;19.60;68.40
16287;DHT22;8251;53.568;10.018;2022-10-16T16:00:39;19.50;68.50
16287;DHT22;8251;53.568;10.018;2022-10-16T16:03:06;19.50;68.80
16287;DHT22;8251;53.568;10.018;2022-10-16T16:05:37;19.50;68.80
16287;DHT22;8251;53.568;10.018;2022-10-16T16:08:04;19.50;69.10
16287;DHT22;8251;53.568;10.018;2022-10-16T16:10:31;19.50;69.20
16287;DHT22;8251;53.568;10.018;2022-10-16T16:12:59;19.40;69.00
16287;DHT22;8251;53.568;10.018;2022-10-16T16:15:26;19.40;69.00